createdAt,value
2022-11-26T00:01:18.524Z,2.10
2022-11-26T00:03:47.263Z,2.97
2022-11-26T00:06:35.312Z,3.23
2022-11-26T00:09:05.329Z,3.27
2022-11-26T00:11:36.068Z,3.17
2022-11-26T00:14:04.477Z,3.40
2022-11-26T00:16:34.412Z,3.40
2022-11-26T00:19:02.780Z,3.57
2022-11-26T00:21:31.693Z,3.50
2022-11-26T00:24:02.780Z,4.27
2022-11-26T00:26:31.330Z,3.17
2022-11-26T00:29:01.002Z,3.70
2022-11-26T00:31:30.098Z,3.57
2022-11-26T00:34:00.000Z,3.33
2022-11-26T00:36:32.833Z,2.63
2022-11-26T00:39:03.468Z,2.60
2022-11-26T00:41:34.499Z,2.50
2022-11-26T00:44:03.490Z,3.10
2022-11-26T00:46:31.995Z,3.60
2022-11-26T00:49:01.762Z,3.83
2022-11-26T00:51:30.141Z,2.60
2022-11-26T00:54:02.116Z,2.40
2022-11-26T00:56:35.179Z,2.67
2022-11-26T00:59:06.509Z,3.50
2022-11-26T01:01:34.893Z,2.67
2022-11-26T01:04:04.857Z,2.73
2022-11-26T01:06:36.148Z,3.77
2022-11-26T01:09:06.574Z,4.70
2022-11-26T01:11:35.131Z,5.17
2022-11-26T01:14:03.586Z,4.50
2022-11-26T01:16:36.063Z,4.20
2022-11-26T01:19:07.332Z,4.50
2022-11-26T01:21:37.043Z,4.23
2022-11-26T01:24:05.905Z,4.03
2022-11-26T01:26:36.124Z,3.80
2022-11-26T01:29:04.423Z,3.83
2022-11-26T01:31:33.054Z,3.67
2022-11-26T01:34:01.490Z,3.87
2022-11-26T01:36:33.120Z,3.20
2022-11-26T01:39:03.371Z,3.43
2022-11-26T01:41:44.832Z,3.17
2022-11-26T01:44:19.200Z,3.30
2022-11-26T01:46:47.894Z,3.83
2022-11-26T01:49:21.327Z,3.90
2022-11-26T01:51:55.436Z,3.73
2022-11-26T01:54:23.865Z,3.33
2022-11-26T01:56:56.306Z,3.10
2022-11-26T01:59:29.336Z,3.57
2022-11-26T02:02:00.594Z,4.20
2022-11-26T02:04:32.509Z,3.87
2022-11-26T02:07:02.951Z,4.07
2022-11-26T02:09:32.056Z,3.87
2022-11-26T02:12:00.537Z,3.73
2022-11-26T02:14:33.059Z,3.93
2022-11-26T02:17:14.744Z,4.10
2022-11-26T02:20:04.964Z,3.83
2022-11-26T02:23:03.978Z,4.10
2022-11-26T02:25:57.162Z,4.40
2022-11-26T02:28:42.946Z,4.27
2022-11-26T02:31:18.715Z,4.30
2022-11-26T02:33:54.477Z,4.37
2022-11-26T02:36:27.727Z,4.17
2022-11-26T02:38:56.345Z,4.10
2022-11-26T02:41:24.935Z,4.03
2022-11-26T02:43:53.572Z,4.20
2022-11-26T02:46:23.847Z,4.53
2022-11-26T02:48:54.479Z,4.93
2022-11-26T02:51:31.945Z,4.97
2022-11-26T02:54:04.195Z,5.73
2022-11-26T02:56:33.554Z,4.70
2022-11-26T02:59:02.377Z,5.57
2022-11-26T03:01:37.500Z,4.80
2022-11-26T03:04:10.715Z,4.87
2022-11-26T03:06:41.311Z,5.20
2022-11-26T03:09:10.615Z,6.10
2022-11-26T03:11:40.727Z,6.00
2022-11-26T03:14:09.506Z,5.67
2022-11-26T03:16:39.502Z,5.97
2022-11-26T03:19:08.128Z,5.47
2022-11-26T03:21:36.724Z,6.33
2022-11-26T03:24:05.500Z,5.40
2022-11-26T03:26:34.056Z,5.93
2022-11-26T03:29:02.635Z,5.27
2022-11-26T03:31:31.167Z,6.10
2022-11-26T03:34:01.362Z,5.50
2022-11-26T03:36:30.022Z,5.90
2022-11-26T03:38:58.591Z,6.13
2022-11-26T03:41:27.148Z,5.87
2022-11-26T03:43:55.818Z,5.97
2022-11-26T03:46:24.429Z,6.60
2022-11-26T03:48:52.990Z,6.37
2022-11-26T03:51:22.950Z,6.20
2022-11-26T03:53:51.463Z,6.60
2022-11-26T03:56:20.029Z,6.03
2022-11-26T03:58:48.694Z,7.03
2022-11-26T04:01:17.266Z,7.03
2022-11-26T04:03:46.015Z,6.30
2022-11-26T04:06:14.522Z,7.00
2022-11-26T04:08:44.495Z,6.73
2022-11-26T04:11:12.837Z,6.63
2022-11-26T04:13:41.129Z,6.77
2022-11-26T04:16:10.375Z,7.37
2022-11-26T04:18:38.714Z,7.43
2022-11-26T04:21:08.257Z,7.23
2022-11-26T04:23:37.238Z,7.43
2022-11-26T04:26:07.331Z,7.00
2022-11-26T04:28:35.752Z,6.17
2022-11-26T04:31:04.127Z,6.63
2022-11-26T04:33:32.486Z,6.50
2022-11-26T04:36:00.980Z,6.90
2022-11-26T04:38:29.454Z,6.10
2022-11-26T04:40:57.785Z,7.40
2022-11-26T04:43:27.551Z,7.80
2022-11-26T04:45:55.878Z,7.30
2022-11-26T04:48:24.431Z,6.93
2022-11-26T04:50:52.680Z,6.97
2022-11-26T04:53:22.188Z,7.70
2022-11-26T04:55:51.036Z,7.70
2022-11-26T04:58:20.566Z,6.90
2022-11-26T05:00:51.485Z,6.80
2022-11-26T05:03:20.519Z,6.70
2022-11-26T05:05:48.922Z,8.13
2022-11-26T05:08:17.297Z,8.97
2022-11-26T05:10:45.687Z,9.00
2022-11-26T05:13:13.975Z,8.97
2022-11-26T05:15:42.331Z,9.13
2022-11-26T05:18:12.004Z,8.90
2022-11-26T05:20:40.468Z,9.73
2022-11-26T05:23:08.882Z,8.70
2022-11-26T05:25:37.434Z,9.83
2022-11-26T05:28:06.061Z,10.63
2022-11-26T05:30:34.831Z,9.43
2022-11-26T05:33:03.377Z,9.43
2022-11-26T05:35:33.099Z,9.63
2022-11-26T05:38:01.380Z,10.00
2022-11-26T05:40:29.697Z,9.60
2022-11-26T05:42:58.068Z,8.93
2022-11-26T05:45:26.468Z,9.57
2022-11-26T05:47:54.798Z,10.53
2022-11-26T05:50:23.213Z,9.57
2022-11-26T05:52:52.953Z,9.73
2022-11-26T05:55:21.285Z,9.80
2022-11-26T05:57:49.596Z,9.37
2022-11-26T06:00:20.504Z,8.40
2022-11-26T06:02:48.990Z,8.20
2022-11-26T06:05:17.554Z,8.80
2022-11-26T06:07:45.938Z,8.07
2022-11-26T06:10:16.223Z,7.57
2022-11-26T06:12:44.477Z,8.27
2022-11-26T06:15:12.947Z,7.63
2022-11-26T06:17:41.277Z,8.37
2022-11-26T06:20:10.363Z,7.90
2022-11-26T06:22:39.346Z,7.53
2022-11-26T06:25:10.554Z,6.87
2022-11-26T06:27:40.748Z,7.03
2022-11-26T06:30:11.480Z,6.07
2022-11-26T06:32:42.249Z,5.97
2022-11-26T06:35:11.755Z,5.70
2022-11-26T06:37:40.367Z,5.27
2022-11-26T06:40:12.975Z,5.23
2022-11-26T06:42:42.769Z,4.80
2022-11-26T06:45:12.572Z,4.23
2022-11-26T06:47:41.119Z,3.97
2022-11-26T06:50:11.067Z,4.10
2022-11-26T06:52:39.499Z,3.70
2022-11-26T06:55:08.684Z,3.60
2022-11-26T06:57:37.105Z,3.77
2022-11-26T07:00:08.722Z,2.87
2022-11-26T07:02:38.378Z,3.43
2022-11-26T07:05:07.133Z,4.00
2022-11-26T07:07:38.368Z,4.40
2022-11-26T07:10:08.417Z,5.87
2022-11-26T07:12:36.876Z,19.80
2022-11-26T07:15:07.729Z,10.87
2022-11-26T07:17:36.306Z,7.33
2022-11-26T07:20:05.003Z,8.07
2022-11-26T07:22:33.308Z,6.40
2022-11-26T07:25:01.618Z,5.60
2022-11-26T07:27:29.882Z,5.50
2022-11-26T07:29:58.199Z,5.57
2022-11-26T07:32:27.937Z,7.80
2022-11-26T07:34:56.249Z,6.20
2022-11-26T07:37:24.556Z,5.30
2022-11-26T07:39:52.841Z,4.87
2022-11-26T07:42:21.103Z,4.80
2022-11-26T07:44:49.465Z,5.97
2022-11-26T07:47:17.753Z,6.87
2022-11-26T07:49:47.465Z,6.23
2022-11-26T07:52:15.757Z,7.43
2022-11-26T07:54:44.288Z,8.90
2022-11-26T07:57:12.645Z,6.73
2022-11-26T07:59:41.034Z,6.93
2022-11-26T08:02:15.010Z,5.60
2022-11-26T08:04:43.440Z,6.33
2022-11-26T08:07:19.985Z,6.47
2022-11-26T08:09:51.444Z,6.33
2022-11-26T08:12:19.768Z,7.50
2022-11-26T08:14:48.003Z,10.63
2022-11-26T08:17:16.313Z,8.50
2022-11-26T08:19:44.738Z,9.77
2022-11-26T08:22:14.607Z,9.17
2022-11-26T08:24:42.840Z,8.50
2022-11-26T08:27:11.146Z,7.27
2022-11-26T08:29:39.469Z,6.97
2022-11-26T08:32:07.897Z,8.77
2022-11-26T08:34:36.785Z,8.03
2022-11-26T08:37:05.236Z,7.47
2022-11-26T08:39:35.010Z,7.90
2022-11-26T08:42:03.474Z,6.63
2022-11-26T08:44:31.926Z,6.50
2022-11-26T08:47:00.440Z,6.77
2022-11-26T08:49:28.885Z,6.53
2022-11-26T08:51:57.681Z,7.47
2022-11-26T08:54:26.269Z,7.20
2022-11-26T08:56:56.855Z,7.00
2022-11-26T08:59:25.564Z,7.27
2022-11-26T09:01:54.045Z,7.53
2022-11-26T09:04:22.569Z,7.87
2022-11-26T09:06:50.996Z,7.40
2022-11-26T09:09:19.255Z,6.40
2022-11-26T09:11:50.817Z,7.20
2022-11-26T09:14:24.990Z,6.20
2022-11-26T09:16:53.705Z,6.10
2022-11-26T09:19:22.469Z,7.90
2022-11-26T09:21:50.923Z,7.73
2022-11-26T09:24:19.610Z,6.97
2022-11-26T09:26:48.531Z,7.13
2022-11-26T09:29:20.246Z,7.70
2022-11-26T09:32:15.881Z,8.40
2022-11-26T09:34:39.019Z,7.20
2022-11-26T09:37:08.120Z,6.83
2022-11-26T09:39:39.083Z,5.60
2022-11-26T09:42:09.586Z,6.53
2022-11-26T09:44:58.377Z,6.60
2022-11-26T09:47:29.158Z,5.93
2022-11-26T09:50:04.926Z,5.80
2022-11-26T09:52:39.893Z,5.50
2022-11-26T09:55:16.639Z,5.70
2022-11-26T09:57:49.238Z,5.80
2022-11-26T10:00:25.975Z,5.27
2022-11-26T10:02:55.599Z,4.60
2022-11-26T10:05:34.647Z,4.20
2022-11-26T10:08:09.654Z,4.70
2022-11-26T10:10:48.197Z,5.27
2022-11-26T10:13:23.695Z,5.80
2022-11-26T10:16:04.395Z,5.23
2022-11-26T10:18:41.568Z,5.47
2022-11-26T10:21:27.451Z,6.07
2022-11-26T10:24:12.864Z,7.03
2022-11-26T10:26:41.935Z,7.80
2022-11-26T10:29:21.800Z,6.77
2022-11-26T10:31:55.013Z,6.97
2022-11-26T10:34:33.391Z,7.17
2022-11-26T10:37:04.349Z,6.07
2022-11-26T10:39:32.690Z,5.63
2022-11-26T10:42:05.807Z,5.23
2022-11-26T10:44:40.600Z,4.50
2022-11-26T10:47:26.049Z,5.40
2022-11-26T10:49:55.780Z,4.53
2022-11-26T10:52:27.279Z,4.40
2022-11-26T10:55:24.514Z,4.93
2022-11-26T10:57:57.897Z,4.80
2022-11-26T11:00:35.982Z,5.60
2022-11-26T11:03:07.933Z,4.60
2022-11-26T11:05:36.414Z,5.30
2022-11-26T11:08:04.903Z,4.73
2022-11-26T11:10:33.344Z,4.57
2022-11-26T11:13:12.062Z,3.50
2022-11-26T11:15:41.563Z,2.90
2022-11-26T11:18:20.603Z,2.90
2022-11-26T11:20:57.849Z,4.60
2022-11-26T11:23:46.082Z,3.87
2022-11-26T11:26:23.320Z,4.17
2022-11-26T11:28:53.864Z,8.70
2022-11-26T11:31:23.574Z,12.00
2022-11-26T11:34:12.385Z,8.33
2022-11-26T11:36:42.850Z,6.70
2022-11-26T11:39:29.542Z,3.87
2022-11-26T11:41:59.371Z,3.33
2022-11-26T11:44:38.143Z,3.07
2022-11-26T11:47:28.961Z,3.70
2022-11-26T11:50:20.318Z,4.87
2022-11-26T11:52:58.148Z,3.80
2022-11-26T11:55:43.902Z,3.10
2022-11-26T11:58:40.846Z,3.87
2022-11-26T12:01:18.729Z,3.73
2022-11-26T12:04:15.063Z,3.50
2022-11-26T12:07:01.653Z,3.67
2022-11-26T12:09:37.973Z,4.23
2022-11-26T12:12:19.557Z,5.17
2022-11-26T12:14:53.658Z,4.47
2022-11-26T12:17:33.208Z,6.33
2022-11-26T12:20:09.083Z,4.30
2022-11-26T12:22:43.505Z,6.43
2022-11-26T12:25:25.793Z,7.13
2022-11-26T12:28:00.262Z,4.93
2022-11-26T12:30:37.689Z,4.17
2022-11-26T12:33:13.729Z,6.07
2022-11-26T12:35:49.342Z,7.77
2022-11-26T12:38:26.500Z,4.53
2022-11-26T12:41:01.386Z,6.87
2022-11-26T12:43:39.040Z,6.37
2022-11-26T12:46:11.921Z,5.90
2022-11-26T12:48:45.462Z,8.00
2022-11-26T12:51:28.213Z,4.37
2022-11-26T12:54:08.814Z,4.35
2022-11-26T12:56:42.753Z,5.07
2022-11-26T12:59:23.527Z,3.50
2022-11-26T13:01:52.558Z,4.90
2022-11-26T13:04:37.156Z,3.30
2022-11-26T13:07:15.535Z,3.40
2022-11-26T13:10:00.128Z,3.20
2022-11-26T13:12:40.302Z,5.15
2022-11-26T13:15:19.043Z,5.30
2022-11-26T13:17:49.337Z,4.65
2022-11-26T13:20:38.334Z,3.47
2022-11-26T13:23:18.114Z,5.35
2022-11-26T13:26:25.020Z,5.07
2022-11-26T13:29:11.578Z,5.97
2022-11-26T13:31:59.616Z,5.60
2022-11-26T13:34:45.742Z,6.47
2022-11-26T13:37:28.661Z,4.50
2022-11-26T13:40:33.921Z,4.43
2022-11-26T13:43:25.178Z,3.47
2022-11-26T13:46:11.662Z,4.03
2022-11-26T13:48:50.354Z,3.75
2022-11-26T13:51:23.596Z,4.05
2022-11-26T13:53:56.121Z,4.10
2022-11-26T13:56:32.178Z,4.10
2022-11-26T13:59:05.652Z,3.47
2022-11-26T14:01:37.214Z,5.50
2022-11-26T14:04:08.038Z,2.95
2022-11-26T14:06:36.927Z,4.70
2022-11-26T14:09:06.126Z,3.85
2022-11-26T14:11:57.183Z,4.78
2022-11-26T14:14:40.727Z,4.30
2022-11-26T14:17:18.117Z,8.50
2022-11-26T14:20:08.507Z,5.00
2022-11-26T14:22:38.169Z,7.28
2022-11-26T14:25:09.213Z,5.78
2022-11-26T14:27:41.031Z,5.18
2022-11-26T14:30:23.827Z,5.65
2022-11-26T14:33:01.432Z,5.60
2022-11-26T14:35:34.324Z,3.88
2022-11-26T14:38:05.476Z,3.40
2022-11-26T14:40:35.413Z,5.00
2022-11-26T14:43:24.640Z,4.07
2022-11-26T14:46:06.627Z,3.67
2022-11-26T14:48:38.406Z,5.00
2022-11-26T14:51:09.627Z,4.50
2022-11-26T14:53:44.923Z,9.33
2022-11-26T14:56:13.506Z,10.50
2022-11-26T14:58:47.245Z,11.70
2022-11-26T15:01:23.021Z,6.67
2022-11-26T15:03:59.666Z,6.37
2022-11-26T15:06:29.994Z,4.60
2022-11-26T15:09:11.202Z,4.57
2022-11-26T15:11:44.249Z,4.63
2022-11-26T15:14:23.935Z,4.80
2022-11-26T15:16:59.046Z,4.60
2022-11-26T15:19:28.802Z,6.80
2022-11-26T15:21:57.169Z,4.40
2022-11-26T15:24:25.932Z,4.83
2022-11-26T15:26:54.263Z,7.00
2022-11-26T15:29:31.322Z,6.63
2022-11-26T15:32:01.196Z,7.17
2022-11-26T15:34:32.412Z,4.30
2022-11-26T15:37:00.859Z,8.67
2022-11-26T15:39:31.824Z,6.60
2022-11-26T15:42:05.752Z,10.23
2022-11-26T15:44:42.607Z,7.20
2022-11-26T15:47:21.225Z,4.37
2022-11-26T15:49:54.935Z,5.90
2022-11-26T15:52:26.145Z,12.07
2022-11-26T15:55:12.375Z,10.97
2022-11-26T15:57:42.389Z,10.53
2022-11-26T16:00:23.002Z,11.57
2022-11-26T16:02:53.569Z,8.23
2022-11-26T16:05:29.048Z,9.60
2022-11-26T16:07:59.139Z,7.53
2022-11-26T16:10:31.163Z,10.77
2022-11-26T16:13:20.507Z,10.90
2022-11-26T16:15:52.045Z,6.00
2022-11-26T16:18:24.518Z,5.57
2022-11-26T16:21:03.914Z,4.67
2022-11-26T16:23:32.492Z,3.63
2022-11-26T16:26:12.849Z,3.90
2022-11-26T16:28:41.236Z,4.07
2022-11-26T16:31:09.700Z,4.87
2022-11-26T16:33:39.469Z,5.03
2022-11-26T16:36:25.335Z,7.57
2022-11-26T16:38:54.408Z,4.20
2022-11-26T16:41:24.349Z,5.00
2022-11-26T16:43:52.660Z,7.10
2022-11-26T16:46:23.454Z,8.77
2022-11-26T16:48:53.644Z,7.73
2022-11-26T16:51:22.996Z,8.93
2022-11-26T16:53:51.366Z,12.77
2022-11-26T16:56:22.270Z,9.90
2022-11-26T16:58:51.348Z,8.43
2022-11-26T17:01:19.675Z,10.70
2022-11-26T17:03:48.152Z,6.53
2022-11-26T17:06:23.282Z,6.17
2022-11-26T17:08:52.247Z,5.90
2022-11-26T17:11:20.667Z,5.60
2022-11-26T17:13:49.056Z,5.93
2022-11-26T17:16:19.325Z,4.53
2022-11-26T17:18:48.646Z,5.00
2022-11-26T17:21:18.340Z,10.83
2022-11-26T17:23:46.687Z,5.90
2022-11-26T17:26:21.161Z,6.10
2022-11-26T17:28:49.569Z,5.10
2022-11-26T17:31:18.662Z,4.63
2022-11-26T17:33:47.251Z,5.70
2022-11-26T17:36:20.608Z,7.43
2022-11-26T17:38:49.257Z,10.23
2022-11-26T17:41:18.408Z,10.50
2022-11-26T17:43:49.163Z,7.40
2022-11-26T17:46:20.359Z,8.53
2022-11-26T17:48:49.532Z,11.23
2022-11-26T17:51:19.721Z,10.33
2022-11-26T17:53:47.931Z,8.00
2022-11-26T17:56:21.038Z,15.27
2022-11-26T17:58:49.746Z,14.03
2022-11-26T18:01:18.947Z,19.43
2022-11-26T18:03:48.036Z,15.37
2022-11-26T18:06:19.479Z,11.53
2022-11-26T18:08:48.195Z,10.60
2022-11-26T18:11:17.772Z,6.43
2022-11-26T18:13:46.505Z,5.40
2022-11-26T18:16:14.874Z,6.50
2022-11-26T18:18:43.414Z,11.27
2022-11-26T18:21:13.651Z,13.80
2022-11-26T18:23:47.838Z,13.63
2022-11-26T18:26:18.760Z,13.27
2022-11-26T18:28:47.358Z,14.23
2022-11-26T18:31:15.737Z,27.67
2022-11-26T18:33:44.355Z,25.87
2022-11-26T18:36:12.797Z,23.53
2022-11-26T18:38:42.741Z,20.10
2022-11-26T18:41:10.997Z,15.20
2022-11-26T18:43:40.453Z,21.47
2022-11-26T18:46:15.754Z,22.63
2022-11-26T18:48:45.929Z,7.90
2022-11-26T18:51:15.726Z,7.20
2022-11-26T18:53:46.045Z,5.03
2022-11-26T18:56:17.461Z,4.67
2022-11-26T18:58:46.143Z,4.87
2022-11-26T19:01:15.516Z,4.53
2022-11-26T19:03:44.494Z,10.23
2022-11-26T19:06:16.661Z,11.63
2022-11-26T19:08:47.436Z,17.57
2022-11-26T19:11:18.782Z,15.17
2022-11-26T19:13:48.032Z,11.70
2022-11-26T19:16:18.506Z,10.23
2022-11-26T19:18:48.208Z,27.23
2022-11-26T19:21:21.499Z,30.17
2022-11-26T19:23:51.775Z,24.00
2022-11-26T19:26:21.263Z,21.47
2022-11-26T19:28:51.020Z,16.80
2022-11-26T19:31:21.029Z,11.60
2022-11-26T19:33:53.235Z,11.10
2022-11-26T19:36:22.837Z,10.17
2022-11-26T19:38:56.414Z,8.87
2022-11-26T19:41:26.010Z,7.77
2022-11-26T19:43:55.371Z,6.90
2022-11-26T19:46:25.713Z,7.03
2022-11-26T19:48:55.731Z,9.10
2022-11-26T19:51:26.320Z,10.43
2022-11-26T19:53:57.268Z,9.60
2022-11-26T19:56:27.584Z,7.27
2022-11-26T19:58:58.073Z,8.20
2022-11-26T20:01:30.709Z,7.60
2022-11-26T20:03:59.990Z,7.20
2022-11-26T20:06:30.371Z,5.80
2022-11-26T20:09:00.546Z,7.43
2022-11-26T20:11:29.923Z,7.90
2022-11-26T20:13:58.813Z,7.70
2022-11-26T20:16:29.760Z,8.07
2022-11-26T20:18:58.705Z,18.17
2022-11-26T20:21:29.035Z,14.33
2022-11-26T20:24:02.109Z,15.43
2022-11-26T20:26:32.152Z,14.00
2022-11-26T20:29:02.529Z,10.90
2022-11-26T20:31:31.463Z,7.30
2022-11-26T20:34:02.669Z,7.03
2022-11-26T20:36:31.383Z,6.87
2022-11-26T20:39:03.137Z,8.57
2022-11-26T20:41:31.828Z,9.60
2022-11-26T20:44:00.424Z,10.83
2022-11-26T20:46:29.930Z,15.07
2022-11-26T20:48:58.711Z,15.83
2022-11-26T20:51:27.331Z,16.10
2022-11-26T20:53:59.920Z,12.53
2022-11-26T20:56:30.228Z,15.60
2022-11-26T20:58:58.691Z,12.27
2022-11-26T21:01:29.672Z,7.67
2022-11-26T21:03:58.436Z,12.07
2022-11-26T21:06:30.461Z,10.07
2022-11-26T21:09:00.495Z,9.30
2022-11-26T21:11:31.594Z,6.43
2022-11-26T21:14:01.762Z,5.83
2022-11-26T21:16:31.457Z,7.03
2022-11-26T21:19:00.715Z,5.80
2022-11-26T21:21:29.976Z,5.13
2022-11-26T21:23:59.173Z,3.30
2022-11-26T21:26:29.623Z,4.17
2022-11-26T21:28:59.006Z,3.13
2022-11-26T21:31:28.269Z,4.30
2022-11-26T21:33:57.917Z,4.00
2022-11-26T21:36:26.718Z,4.13
2022-11-26T21:38:55.441Z,3.20
2022-11-26T21:41:25.197Z,3.27
2022-11-26T21:43:55.095Z,3.53
2022-11-26T21:46:25.603Z,3.40
2022-11-26T21:48:54.890Z,3.80
2022-11-26T21:51:24.362Z,3.83
2022-11-26T21:53:54.424Z,2.97
2022-11-26T21:56:25.680Z,3.10
2022-11-26T21:58:57.982Z,3.43
2022-11-26T22:01:29.226Z,3.27
2022-11-26T22:04:00.174Z,3.00
2022-11-26T22:06:28.968Z,2.60
2022-11-26T22:08:57.571Z,3.77
2022-11-26T22:11:27.375Z,3.03
2022-11-26T22:13:57.777Z,2.70
2022-11-26T22:16:28.116Z,2.53
2022-11-26T22:18:57.645Z,3.27
2022-11-26T22:21:29.333Z,2.97
2022-11-26T22:23:58.312Z,2.40
2022-11-26T22:26:27.235Z,2.40
2022-11-26T22:28:56.950Z,4.43
2022-11-26T22:31:27.169Z,3.57
2022-11-26T22:33:57.091Z,3.53
2022-11-26T22:36:25.963Z,3.00
2022-11-26T22:38:54.545Z,2.67
2022-11-26T22:41:23.904Z,2.70
2022-11-26T22:43:52.877Z,3.00
2022-11-26T22:46:24.514Z,2.67
2022-11-26T22:48:54.377Z,2.67
2022-11-26T22:51:23.550Z,2.97
2022-11-26T22:53:52.180Z,2.80
2022-11-26T22:56:21.154Z,3.23
2022-11-26T22:58:49.737Z,2.73
2022-11-26T23:01:21.269Z,2.57
2022-11-26T23:03:51.869Z,2.43
2022-11-26T23:06:22.171Z,4.07
2022-11-26T23:08:51.367Z,3.10
2022-11-26T23:11:23.211Z,4.60
2022-11-26T23:13:52.011Z,3.93
2022-11-26T23:16:22.281Z,4.70
2022-11-26T23:18:52.707Z,3.10
2022-11-26T23:21:23.189Z,3.47
2022-11-26T23:23:51.587Z,5.47
2022-11-26T23:26:26.787Z,4.47
2022-11-26T23:28:56.608Z,2.70
2022-11-26T23:31:27.169Z,2.77
2022-11-26T23:33:57.475Z,3.40
2022-11-26T23:36:26.470Z,2.90
2022-11-26T23:38:55.069Z,4.13
2022-11-26T23:41:23.830Z,3.30
2022-11-26T23:43:52.174Z,4.27
2022-11-26T23:46:22.921Z,3.10
2022-11-26T23:48:52.032Z,3.03
2022-11-26T23:51:24.425Z,2.90
2022-11-26T23:53:53.752Z,2.63
2022-11-26T23:56:23.714Z,2.67
2022-11-26T23:58:52.759Z,3.30
